Terminal Aerodrome Forecast
Issued by NWS

Home | Current Version | Previous Version | Text Only | Print | Product List | Glossary Off
Versions: 1 2 3 4 5 6 7 8 9 10 11 12 13 14 15 16 17 18 19 20 21 22 23 24 25 26 27 28 29 30 31 32
351 FTUS41 KBOX 100534 TAFHYA TAF KHYA 100534Z 1006/1106 VRB03KT P6SM BKN025 FM101300 VRB03KT P6SM VCSH BKN020 FM101800 23005KT 3SM -SHSN OVC015 FM101900 24006KT P6SM VCSH OVC015 FM102300 26008KT P6SM BKN015 FM110100 27008KT P6SM BKN040=

USA.gov is the U.S. government's official web portal to all federal, state and local government web resources and services.